sensor_id;sensor_type;location;lat;lon;timestamp;P1;durP1;ratioP1;P2;durP2;ratioP2
61627;SDS011;55193;52.102;5.242;2022-10-31T00:00:25;14.7;;;9.71;;
61627;SDS011;55193;52.102;5.242;2022-10-31T00:02:01;15.4;;;9.4;;
61627;SDS011;55193;52.102;5.242;2022-10-31T00:03:37;14.2;;;9.5;;
61627;SDS011;55193;52.102;5.242;2022-10-31T00:05:13;14.3;;;9.4;;
61627;SDS011;55193;52.102;5.242;2022-10-31T00:08:26;16.7;;;10.0;;
61627;SDS011;55193;52.102;5.242;2022-10-31T00:10:04;17.2;;;10.0;;
61627;SDS011;55193;52.102;5.242;2022-10-31T00:11:42;14.5;;;10.1;;
61627;SDS011;55193;52.102;5.242;2022-10-31T00:14:54;17.11;;;10.21;;
61627;SDS011;55193;52.102;5.242;2022-10-31T00:16:30;15.4;;;10.8;;
61627;SDS011;55193;52.102;5.242;2022-10-31T00:18:08;14.8;;;10.0;;
61627;SDS011;55193;52.102;5.242;2022-10-31T00:19:46;16.9;;;10.1;;
61627;SDS011;55193;52.102;5.242;2022-10-31T00:23:00;17.5;;;10.5;;
61627;SDS011;55193;52.102;5.242;2022-10-31T00:24:38;18.91;;;10.3;;
61627;SDS011;55193;52.102;5.242;2022-10-31T00:26:16;15.6;;;10.5;;
61627;SDS011;55193;52.102;5.242;2022-10-31T00:29:31;16.61;;;10.21;;
61627;SDS011;55193;52.102;5.242;2022-10-31T00:31:08;14.7;;;10.1;;
61627;SDS011;55193;52.102;5.242;2022-10-31T00:32:47;16.3;;;10.6;;
61627;SDS011;55193;52.102;5.242;2022-10-31T00:35:59;18.2;;;10.21;;
61627;SDS011;55193;52.102;5.242;2022-10-31T00:37:37;15.8;;;10.21;;
61627;SDS011;55193;52.102;5.242;2022-10-31T00:39:13;16.5;;;10.3;;
61627;SDS011;55193;52.102;5.242;2022-10-31T00:40:49;18.11;;;10.7;;
61627;SDS011;55193;52.102;5.242;2022-10-31T00:44:03;17.7;;;11.1;;
61627;SDS011;55193;52.102;5.242;2022-10-31T00:45:40;16.7;;;11.1;;
61627;SDS011;55193;52.102;5.242;2022-10-31T00:47:16;16.8;;;11.6;;
61627;SDS011;55193;52.102;5.242;2022-10-31T00:50:29;19.5;;;11.3;;
61627;SDS011;55193;52.102;5.242;2022-10-31T00:52:05;19.61;;;11.8;;
61627;SDS011;55193;52.102;5.242;2022-10-31T00:53:41;17.41;;;11.0;;
61627;SDS011;55193;52.102;5.242;2022-10-31T00:56:53;16.7;;;11.0;;
61627;SDS011;55193;52.102;5.242;2022-10-31T00:58:30;17.0;;;11.0;;
61627;SDS011;55193;52.102;5.242;2022-10-31T01:00:06;17.0;;;11.0;;
61627;SDS011;55193;52.102;5.242;2022-10-31T01:01:44;14.6;;;10.7;;
61627;SDS011;55193;52.102;5.242;2022-10-31T01:04:57;17.91;;;11.5;;
61627;SDS011;55193;52.102;5.242;2022-10-31T01:06:33;17.2;;;11.3;;
61627;SDS011;55193;52.102;5.242;2022-10-31T01:08:10;17.41;;;11.4;;
61627;SDS011;55193;52.102;5.242;2022-10-31T01:11:22;18.3;;;11.8;;
61627;SDS011;55193;52.102;5.242;2022-10-31T01:12:59;15.9;;;10.9;;
61627;SDS011;55193;52.102;5.242;2022-10-31T01:14:35;17.11;;;10.8;;
61627;SDS011;55193;52.102;5.242;2022-10-31T01:17:51;18.11;;;11.1;;
61627;SDS011;55193;52.102;5.242;2022-10-31T01:19:27;20.5;;;11.3;;
61627;SDS011;55193;52.102;5.242;2022-10-31T01:21:05;16.9;;;11.1;;
61627;SDS011;55193;52.102;5.242;2022-10-31T01:22:43;17.41;;;11.6;;
61627;SDS011;55193;52.102;5.242;2022-10-31T01:26:00;18.11;;;11.9;;
61627;SDS011;55193;52.102;5.242;2022-10-31T01:27:43;15.7;;;11.2;;
61627;SDS011;55193;52.102;5.242;2022-10-31T01:29:19;16.4;;;11.7;;
61627;SDS011;55193;52.102;5.242;2022-10-31T01:30:55;17.2;;;11.6;;
61627;SDS011;55193;52.102;5.242;2022-10-31T01:34:12;17.7;;;11.6;;
61627;SDS011;55193;52.102;5.242;2022-10-31T01:35:51;19.5;;;11.6;;
61627;SDS011;55193;52.102;5.242;2022-10-31T01:37:28;18.11;;;11.0;;
61627;SDS011;55193;52.102;5.242;2022-10-31T01:40:46;18.5;;;11.4;;
61627;SDS011;55193;52.102;5.242;2022-10-31T01:42:22;17.91;;;11.6;;
61627;SDS011;55193;52.102;5.242;2022-10-31T01:44:00;18.91;;;11.6;;
61627;SDS011;55193;52.102;5.242;2022-10-31T01:45:38;20.9;;;11.6;;
61627;SDS011;55193;52.102;5.242;2022-10-31T01:48:56;15.5;;;10.9;;
61627;SDS011;55193;52.102;5.242;2022-10-31T01:50:35;19.2;;;11.9;;
61627;SDS011;55193;52.102;5.242;2022-10-31T01:52:16;19.5;;;11.5;;
61627;SDS011;55193;52.102;5.242;2022-10-31T01:54:00;18.8;;;12.1;;
61627;SDS011;55193;52.102;5.242;2022-10-31T01:57:21;21.8;;;12.1;;
61627;SDS011;55193;52.102;5.242;2022-10-31T01:58:58;17.7;;;12.1;;
61627;SDS011;55193;52.102;5.242;2022-10-31T02:00:37;17.0;;;11.1;;
61627;SDS011;55193;52.102;5.242;2022-10-31T02:03:53;15.1;;;11.1;;
61627;SDS011;55193;52.102;5.242;2022-10-31T02:05:30;19.8;;;11.4;;
61627;SDS011;55193;52.102;5.242;2022-10-31T02:07:10;17.0;;;11.7;;
61627;SDS011;55193;52.102;5.242;2022-10-31T02:08:50;17.61;;;11.4;;
61627;SDS011;55193;52.102;5.242;2022-10-31T02:12:06;15.9;;;11.5;;
61627;SDS011;55193;52.102;5.242;2022-10-31T02:13:46;16.7;;;11.5;;
61627;SDS011;55193;52.102;5.242;2022-10-31T02:15:23;17.8;;;11.8;;
61627;SDS011;55193;52.102;5.242;2022-10-31T02:17:00;16.7;;;11.6;;
61627;SDS011;55193;52.102;5.242;2022-10-31T02:20:14;16.7;;;11.0;;
61627;SDS011;55193;52.102;5.242;2022-10-31T02:21:55;16.3;;;11.7;;
61627;SDS011;55193;52.102;5.242;2022-10-31T02:23:45;18.0;;;11.5;;
61627;SDS011;55193;52.102;5.242;2022-10-31T02:27:21;14.9;;;11.0;;
61627;SDS011;55193;52.102;5.242;2022-10-31T02:29:20;17.91;;;11.0;;
61627;SDS011;55193;52.102;5.242;2022-10-31T02:32:12;14.3;;;10.8;;
61627;SDS011;55193;52.102;5.242;2022-10-31T02:33:55;16.7;;;11.5;;
61627;SDS011;55193;52.102;5.242;2022-10-31T02:37:31;18.8;;;11.6;;
61627;SDS011;55193;52.102;5.242;2022-10-31T02:39:22;15.1;;;10.8;;
61627;SDS011;55193;52.102;5.242;2022-10-31T02:41:04;15.2;;;11.1;;
61627;SDS011;55193;52.102;5.242;2022-10-31T02:42:48;19.41;;;11.9;;
61627;SDS011;55193;52.102;5.242;2022-10-31T02:44:35;20.5;;;11.5;;
61627;SDS011;55193;52.102;5.242;2022-10-31T02:46:19;15.3;;;11.0;;
61627;SDS011;55193;52.102;5.242;2022-10-31T02:49:48;22.0;;;11.4;;
61627;SDS011;55193;52.102;5.242;2022-10-31T02:51:32;17.91;;;11.3;;
61627;SDS011;55193;52.102;5.242;2022-10-31T02:53:08;23.1;;;11.6;;
61627;SDS011;55193;52.102;5.242;2022-10-31T02:54:44;16.61;;;11.2;;
61627;SDS011;55193;52.102;5.242;2022-10-31T02:58:00;17.0;;;11.6;;
61627;SDS011;55193;52.102;5.242;2022-10-31T02:59:42;18.11;;;11.5;;
61627;SDS011;55193;52.102;5.242;2022-10-31T03:03:49;15.3;;;10.6;;
61627;SDS011;55193;52.102;5.242;2022-10-31T03:05:40;15.2;;;10.8;;
61627;SDS011;55193;52.102;5.242;2022-10-31T03:07:29;16.8;;;10.8;;
61627;SDS011;55193;52.102;5.242;2022-10-31T03:09:19;16.8;;;10.8;;
61627;SDS011;55193;52.102;5.242;2022-10-31T03:12:43;16.5;;;10.4;;
61627;SDS011;55193;52.102;5.242;2022-10-31T03:14:29;17.41;;;10.5;;
61627;SDS011;55193;52.102;5.242;2022-10-31T03:16:14;16.8;;;11.1;;
61627;SDS011;55193;52.102;5.242;2022-10-31T03:17:57;15.4;;;10.4;;
61627;SDS011;55193;52.102;5.242;2022-10-31T03:21:21;16.5;;;10.21;;
61627;SDS011;55193;52.102;5.242;2022-10-31T03:23:04;16.4;;;10.4;;
61627;SDS011;55193;52.102;5.242;2022-10-31T03:24:44;16.7;;;10.8;;
61627;SDS011;55193;52.102;5.242;2022-10-31T03:26:23;16.5;;;11.0;;
61627;SDS011;55193;52.102;5.242;2022-10-31T03:29:42;16.9;;;11.9;;
61627;SDS011;55193;52.102;5.242;2022-10-31T03:31:22;16.4;;;11.6;;
61627;SDS011;55193;52.102;5.242;2022-10-31T03:33:10;16.8;;;11.5;;
61627;SDS011;55193;52.102;5.242;2022-10-31T03:34:50;18.0;;;11.6;;
61627;SDS011;55193;52.102;5.242;2022-10-31T03:36:32;17.8;;;11.7;;
61627;SDS011;55193;52.102;5.242;2022-10-31T03:39:50;19.2;;;11.8;;
61627;SDS011;55193;52.102;5.242;2022-10-31T03:41:28;17.11;;;12.3;;
61627;SDS011;55193;52.102;5.242;2022-10-31T03:43:15;18.91;;;12.1;;
61627;SDS011;55193;52.102;5.242;2022-10-31T03:44:57;17.8;;;12.1;;
61627;SDS011;55193;52.102;5.242;2022-10-31T03:48:18;17.8;;;12.0;;
61627;SDS011;55193;52.102;5.242;2022-10-31T03:49:56;19.5;;;12.9;;
61627;SDS011;55193;52.102;5.242;2022-10-31T03:51:35;17.61;;;11.9;;
61627;SDS011;55193;52.102;5.242;2022-10-31T03:53:19;17.41;;;12.6;;
61627;SDS011;55193;52.102;5.242;2022-10-31T03:56:49;19.8;;;12.1;;
61627;SDS011;55193;52.102;5.242;2022-10-31T03:58:31;19.91;;;11.8;;
61627;SDS011;55193;52.102;5.242;2022-10-31T04:00:12;18.2;;;12.3;;
61627;SDS011;55193;52.102;5.242;2022-10-31T04:01:51;19.7;;;11.8;;
61627;SDS011;55193;52.102;5.242;2022-10-31T04:03:38;18.11;;;11.7;;
61627;SDS011;55193;52.102;5.242;2022-10-31T04:06:53;19.91;;;13.5;;
61627;SDS011;55193;52.102;5.242;2022-10-31T04:08:33;18.5;;;12.7;;
61627;SDS011;55193;52.102;5.242;2022-10-31T04:10:16;19.2;;;12.7;;
61627;SDS011;55193;52.102;5.242;2022-10-31T04:13:35;18.11;;;13.1;;
61627;SDS011;55193;52.102;5.242;2022-10-31T04:15:15;21.1;;;13.4;;
61627;SDS011;55193;52.102;5.242;2022-10-31T04:16:52;20.7;;;13.5;;
61627;SDS011;55193;52.102;5.242;2022-10-31T04:18:28;17.2;;;12.6;;
61627;SDS011;55193;52.102;5.242;2022-10-31T04:21:43;20.3;;;14.0;;
61627;SDS011;55193;52.102;5.242;2022-10-31T04:23:20;21.5;;;13.9;;
61627;SDS011;55193;52.102;5.242;2022-10-31T04:25:00;21.9;;;13.8;;
61627;SDS011;55193;52.102;5.242;2022-10-31T04:28:13;19.8;;;14.1;;
61627;SDS011;55193;52.102;5.242;2022-10-31T04:29:49;20.41;;;14.0;;
61627;SDS011;55193;52.102;5.242;2022-10-31T04:31:25;22.4;;;14.4;;
61627;SDS011;55193;52.102;5.242;2022-10-31T04:33:01;21.3;;;13.3;;
61627;SDS011;55193;52.102;5.242;2022-10-31T04:36:14;20.2;;;14.2;;
61627;SDS011;55193;52.102;5.242;2022-10-31T04:37:50;19.5;;;14.3;;
61627;SDS011;55193;52.102;5.242;2022-10-31T04:39:26;21.0;;;14.2;;
61627;SDS011;55193;52.102;5.242;2022-10-31T04:42:38;20.5;;;14.0;;
61627;SDS011;55193;52.102;5.242;2022-10-31T04:44:14;21.1;;;13.8;;
61627;SDS011;55193;52.102;5.242;2022-10-31T04:45:51;20.6;;;14.0;;
61627;SDS011;55193;52.102;5.242;2022-10-31T04:49:03;19.3;;;14.4;;
61627;SDS011;55193;52.102;5.242;2022-10-31T04:50:39;19.5;;;13.6;;
61627;SDS011;55193;52.102;5.242;2022-10-31T04:52:16;20.8;;;14.3;;
61627;SDS011;55193;52.102;5.242;2022-10-31T04:53:52;20.3;;;13.9;;
61627;SDS011;55193;52.102;5.242;2022-10-31T04:57:06;22.0;;;14.7;;
61627;SDS011;55193;52.102;5.242;2022-10-31T04:58:42;19.8;;;14.3;;
61627;SDS011;55193;52.102;5.242;2022-10-31T05:00:19;21.4;;;14.7;;
61627;SDS011;55193;52.102;5.242;2022-10-31T05:03:33;20.11;;;14.1;;
61627;SDS011;55193;52.102;5.242;2022-10-31T05:05:10;22.7;;;14.6;;
61627;SDS011;55193;52.102;5.242;2022-10-31T05:06:46;20.2;;;14.8;;
61627;SDS011;55193;52.102;5.242;2022-10-31T05:09:58;23.1;;;15.1;;
61627;SDS011;55193;52.102;5.242;2022-10-31T05:11:34;20.7;;;15.2;;
61627;SDS011;55193;52.102;5.242;2022-10-31T05:13:10;23.9;;;15.8;;
61627;SDS011;55193;52.102;5.242;2022-10-31T05:14:46;20.6;;;14.6;;
61627;SDS011;55193;52.102;5.242;2022-10-31T05:17:59;22.3;;;15.3;;
61627;SDS011;55193;52.102;5.242;2022-10-31T05:19:36;22.4;;;14.9;;
61627;SDS011;55193;52.102;5.242;2022-10-31T05:21:12;23.7;;;15.1;;
61627;SDS011;55193;52.102;5.242;2022-10-31T05:24:26;23.4;;;15.7;;
61627;SDS011;55193;52.102;5.242;2022-10-31T05:26:03;22.0;;;15.1;;
61627;SDS011;55193;52.102;5.242;2022-10-31T05:27:40;20.41;;;14.7;;
61627;SDS011;55193;52.102;5.242;2022-10-31T05:30:53;23.3;;;15.5;;
61627;SDS011;55193;52.102;5.242;2022-10-31T05:32:35;22.5;;;15.0;;
61627;SDS011;55193;52.102;5.242;2022-10-31T05:34:12;22.1;;;15.8;;
61627;SDS011;55193;52.102;5.242;2022-10-31T05:35:49;19.5;;;14.8;;
61627;SDS011;55193;52.102;5.242;2022-10-31T05:39:01;22.3;;;14.8;;
61627;SDS011;55193;52.102;5.242;2022-10-31T05:40:38;22.8;;;15.1;;
61627;SDS011;55193;52.102;5.242;2022-10-31T05:42:14;22.2;;;15.1;;
61627;SDS011;55193;52.102;5.242;2022-10-31T05:45:28;24.2;;;16.2;;
61627;SDS011;55193;52.102;5.242;2022-10-31T05:47:04;22.5;;;16.11;;
61627;SDS011;55193;52.102;5.242;2022-10-31T05:48:41;23.9;;;16.2;;
61627;SDS011;55193;52.102;5.242;2022-10-31T05:51:54;23.8;;;16.7;;
61627;SDS011;55193;52.102;5.242;2022-10-31T05:53:30;24.1;;;15.7;;
61627;SDS011;55193;52.102;5.242;2022-10-31T05:55:07;20.7;;;14.7;;
61627;SDS011;55193;52.102;5.242;2022-10-31T05:56:44;23.3;;;15.3;;
61627;SDS011;55193;52.102;5.242;2022-10-31T05:59:56;21.3;;;15.4;;
61627;SDS011;55193;52.102;5.242;2022-10-31T06:01:33;25.7;;;16.61;;
61627;SDS011;55193;52.102;5.242;2022-10-31T06:03:09;23.3;;;16.7;;
61627;SDS011;55193;52.102;5.242;2022-10-31T06:06:22;26.2;;;17.11;;
61627;SDS011;55193;52.102;5.242;2022-10-31T06:07:58;25.8;;;17.8;;
61627;SDS011;55193;52.102;5.242;2022-10-31T06:09:34;24.0;;;17.41;;
61627;SDS011;55193;52.102;5.242;2022-10-31T06:12:46;21.9;;;16.11;;
61627;SDS011;55193;52.102;5.242;2022-10-31T06:14:23;25.6;;;17.5;;
61627;SDS011;55193;52.102;5.242;2022-10-31T06:16:00;28.5;;;17.8;;
61627;SDS011;55193;52.102;5.242;2022-10-31T06:17:36;28.3;;;19.11;;
61627;SDS011;55193;52.102;5.242;2022-10-31T06:20:48;28.0;;;17.8;;
61627;SDS011;55193;52.102;5.242;2022-10-31T06:22:24;26.7;;;18.2;;
61627;SDS011;55193;52.102;5.242;2022-10-31T06:24:01;30.7;;;19.0;;
61627;SDS011;55193;52.102;5.242;2022-10-31T06:27:15;28.0;;;19.11;;
61627;SDS011;55193;52.102;5.242;2022-10-31T06:28:51;28.0;;;19.61;;
61627;SDS011;55193;52.102;5.242;2022-10-31T06:30:27;29.5;;;19.91;;
61627;SDS011;55193;52.102;5.242;2022-10-31T06:33:40;34.0;;;20.11;;
61627;SDS011;55193;52.102;5.242;2022-10-31T06:35:16;33.1;;;21.7;;
61627;SDS011;55193;52.102;5.242;2022-10-31T06:36:53;40.81;;;26.8;;
61627;SDS011;55193;52.102;5.242;2022-10-31T06:38:29;38.31;;;24.3;;
61627;SDS011;55193;52.102;5.242;2022-10-31T06:41:42;37.9;;;23.3;;
61627;SDS011;55193;52.102;5.242;2022-10-31T06:43:18;34.6;;;22.3;;
61627;SDS011;55193;52.102;5.242;2022-10-31T06:44:55;38.1;;;23.0;;
61627;SDS011;55193;52.102;5.242;2022-10-31T06:48:08;39.21;;;22.4;;
61627;SDS011;55193;52.102;5.242;2022-10-31T06:49:44;40.4;;;22.5;;
61627;SDS011;55193;52.102;5.242;2022-10-31T06:51:20;41.3;;;23.1;;
61627;SDS011;55193;52.102;5.242;2022-10-31T06:54:34;31.0;;;20.5;;
61627;SDS011;55193;52.102;5.242;2022-10-31T06:56:10;38.81;;;22.6;;
61627;SDS011;55193;52.102;5.242;2022-10-31T06:57:49;44.9;;;23.1;;
61627;SDS011;55193;52.102;5.242;2022-10-31T06:59:26;46.5;;;24.1;;
61627;SDS011;55193;52.102;5.242;2022-10-31T07:02:38;47.9;;;25.2;;
61627;SDS011;55193;52.102;5.242;2022-10-31T07:04:14;47.1;;;25.1;;
61627;SDS011;55193;52.102;5.242;2022-10-31T07:05:50;45.1;;;24.8;;
61627;SDS011;55193;52.102;5.242;2022-10-31T07:09:03;45.4;;;26.1;;
61627;SDS011;55193;52.102;5.242;2022-10-31T07:10:40;46.1;;;26.1;;
61627;SDS011;55193;52.102;5.242;2022-10-31T07:12:18;49.5;;;25.2;;
61627;SDS011;55193;52.102;5.242;2022-10-31T07:15:33;42.6;;;24.8;;
61627;SDS011;55193;52.102;5.242;2022-10-31T07:17:13;43.2;;;24.0;;
61627;SDS011;55193;52.102;5.242;2022-10-31T07:18:50;45.8;;;28.4;;
61627;SDS011;55193;52.102;5.242;2022-10-31T07:20:27;46.3;;;27.0;;
61627;SDS011;55193;52.102;5.242;2022-10-31T07:23:39;43.1;;;25.4;;
61627;SDS011;55193;52.102;5.242;2022-10-31T07:25:15;40.0;;;25.2;;
61627;SDS011;55193;52.102;5.242;2022-10-31T07:26:52;39.71;;;24.8;;
61627;SDS011;55193;52.102;5.242;2022-10-31T07:30:04;35.4;;;23.9;;
61627;SDS011;55193;52.102;5.242;2022-10-31T07:31:48;37.0;;;24.7;;
61627;SDS011;55193;52.102;5.242;2022-10-31T07:33:26;37.31;;;23.1;;
61627;SDS011;55193;52.102;5.242;2022-10-31T07:35:02;34.21;;;22.5;;
61627;SDS011;55193;52.102;5.242;2022-10-31T07:38:15;31.0;;;21.5;;
61627;SDS011;55193;52.102;5.242;2022-10-31T07:39:51;32.3;;;21.9;;
61627;SDS011;55193;52.102;5.242;2022-10-31T07:41:27;31.6;;;21.6;;
61627;SDS011;55193;52.102;5.242;2022-10-31T07:44:41;33.3;;;22.4;;
61627;SDS011;55193;52.102;5.242;2022-10-31T07:46:17;34.31;;;23.0;;
61627;SDS011;55193;52.102;5.242;2022-10-31T07:47:53;34.21;;;23.5;;
61627;SDS011;55193;52.102;5.242;2022-10-31T07:51:06;33.6;;;23.4;;
61627;SDS011;55193;52.102;5.242;2022-10-31T07:52:42;34.5;;;22.9;;
61627;SDS011;55193;52.102;5.242;2022-10-31T07:54:20;32.21;;;22.5;;
61627;SDS011;55193;52.102;5.242;2022-10-31T07:55:56;33.71;;;22.4;;
61627;SDS011;55193;52.102;5.242;2022-10-31T07:59:08;32.6;;;22.0;;
61627;SDS011;55193;52.102;5.242;2022-10-31T08:00:45;33.71;;;22.1;;
61627;SDS011;55193;52.102;5.242;2022-10-31T08:02:23;36.0;;;22.6;;
61627;SDS011;55193;52.102;5.242;2022-10-31T08:05:36;37.0;;;23.2;;
61627;SDS011;55193;52.102;5.242;2022-10-31T08:07:13;34.6;;;23.0;;
61627;SDS011;55193;52.102;5.242;2022-10-31T08:08:49;36.21;;;23.5;;
61627;SDS011;55193;52.102;5.242;2022-10-31T08:12:03;36.1;;;23.2;;
61627;SDS011;55193;52.102;5.242;2022-10-31T08:13:40;36.21;;;23.3;;
61627;SDS011;55193;52.102;5.242;2022-10-31T08:15:16;32.71;;;21.6;;
61627;SDS011;55193;52.102;5.242;2022-10-31T08:16:52;35.5;;;23.6;;
61627;SDS011;55193;52.102;5.242;2022-10-31T08:20:06;37.9;;;24.1;;
61627;SDS011;55193;52.102;5.242;2022-10-31T08:21:43;35.4;;;23.8;;
61627;SDS011;55193;52.102;5.242;2022-10-31T08:23:19;36.81;;;23.6;;
61627;SDS011;55193;52.102;5.242;2022-10-31T08:26:32;31.2;;;22.2;;
61627;SDS011;55193;52.102;5.242;2022-10-31T08:28:10;34.71;;;24.0;;
61627;SDS011;55193;52.102;5.242;2022-10-31T08:29:47;36.4;;;24.0;;
61627;SDS011;55193;52.102;5.242;2022-10-31T08:33:03;34.81;;;23.0;;
61627;SDS011;55193;52.102;5.242;2022-10-31T08:34:41;37.5;;;25.3;;
61627;SDS011;55193;52.102;5.242;2022-10-31T08:36:17;36.31;;;23.7;;
61627;SDS011;55193;52.102;5.242;2022-10-31T08:37:54;37.4;;;24.5;;
61627;SDS011;55193;52.102;5.242;2022-10-31T08:41:07;37.4;;;25.5;;
61627;SDS011;55193;52.102;5.242;2022-10-31T08:42:43;35.31;;;24.3;;
61627;SDS011;55193;52.102;5.242;2022-10-31T08:44:21;39.5;;;25.7;;
61627;SDS011;55193;52.102;5.242;2022-10-31T08:47:33;38.1;;;24.3;;
61627;SDS011;55193;52.102;5.242;2022-10-31T08:49:09;39.5;;;26.1;;
61627;SDS011;55193;52.102;5.242;2022-10-31T08:50:45;40.5;;;24.9;;
61627;SDS011;55193;52.102;5.242;2022-10-31T08:52:23;38.6;;;24.9;;
61627;SDS011;55193;52.102;5.242;2022-10-31T08:55:36;40.4;;;26.6;;
61627;SDS011;55193;52.102;5.242;2022-10-31T08:57:14;37.5;;;24.6;;
61627;SDS011;55193;52.102;5.242;2022-10-31T08:58:52;39.81;;;25.6;;
61627;SDS011;55193;52.102;5.242;2022-10-31T09:02:04;38.6;;;25.5;;
61627;SDS011;55193;52.102;5.242;2022-10-31T09:03:40;38.6;;;24.0;;
61627;SDS011;55193;52.102;5.242;2022-10-31T09:05:16;36.81;;;24.4;;
61627;SDS011;55193;52.102;5.242;2022-10-31T09:08:29;36.9;;;24.1;;
61627;SDS011;55193;52.102;5.242;2022-10-31T09:10:07;35.4;;;22.5;;
61627;SDS011;55193;52.102;5.242;2022-10-31T09:11:43;35.6;;;23.8;;
61627;SDS011;55193;52.102;5.242;2022-10-31T09:13:20;36.1;;;23.6;;
61627;SDS011;55193;52.102;5.242;2022-10-31T09:16:33;41.2;;;26.1;;
61627;SDS011;55193;52.102;5.242;2022-10-31T09:18:09;36.31;;;24.7;;
61627;SDS011;55193;52.102;5.242;2022-10-31T09:19:46;39.1;;;24.9;;
61627;SDS011;55193;52.102;5.242;2022-10-31T09:23:00;38.81;;;24.8;;
61627;SDS011;55193;52.102;5.242;2022-10-31T09:24:37;37.21;;;24.6;;
61627;SDS011;55193;52.102;5.242;2022-10-31T09:26:14;36.5;;;23.6;;
61627;SDS011;55193;52.102;5.242;2022-10-31T09:29:26;34.9;;;23.7;;
61627;SDS011;55193;52.102;5.242;2022-10-31T09:31:02;34.0;;;22.3;;
61627;SDS011;55193;52.102;5.242;2022-10-31T09:32:38;35.4;;;24.0;;
61627;SDS011;55193;52.102;5.242;2022-10-31T09:34:14;33.5;;;23.2;;
61627;SDS011;55193;52.102;5.242;2022-10-31T09:37:27;36.6;;;23.8;;
61627;SDS011;55193;52.102;5.242;2022-10-31T09:39:03;36.0;;;23.3;;
61627;SDS011;55193;52.102;5.242;2022-10-31T09:40:40;35.6;;;23.2;;
61627;SDS011;55193;52.102;5.242;2022-10-31T09:44:25;35.9;;;23.3;;
61627;SDS011;55193;52.102;5.242;2022-10-31T09:46:14;31.8;;;21.6;;
61627;SDS011;55193;52.102;5.242;2022-10-31T09:48:05;32.6;;;21.3;;
61627;SDS011;55193;52.102;5.242;2022-10-31T09:50:14;29.1;;;20.41;;
61627;SDS011;55193;52.102;5.242;2022-10-31T09:51:57;31.7;;;20.7;;
61627;SDS011;55193;52.102;5.242;2022-10-31T09:53:51;28.9;;;20.2;;
61627;SDS011;55193;52.102;5.242;2022-10-31T09:55:34;29.3;;;21.1;;
61627;SDS011;55193;52.102;5.242;2022-10-31T09:57:16;31.4;;;20.41;;
61627;SDS011;55193;52.102;5.242;2022-10-31T10:00:40;28.7;;;19.3;;
61627;SDS011;55193;52.102;5.242;2022-10-31T10:02:18;29.3;;;20.0;;
61627;SDS011;55193;52.102;5.242;2022-10-31T10:04:01;29.3;;;18.8;;
61627;SDS011;55193;52.102;5.242;2022-10-31T10:05:51;25.4;;;18.7;;
61627;SDS011;55193;52.102;5.242;2022-10-31T10:09:20;24.9;;;17.5;;
61627;SDS011;55193;52.102;5.242;2022-10-31T10:11:05;27.0;;;17.8;;
61627;SDS011;55193;52.102;5.242;2022-10-31T10:13:05;27.2;;;17.5;;
61627;SDS011;55193;52.102;5.242;2022-10-31T10:15:16;23.4;;;16.4;;
61627;SDS011;55193;52.102;5.242;2022-10-31T10:18:05;24.3;;;15.8;;
61627;SDS011;55193;52.102;5.242;2022-10-31T10:19:56;24.3;;;15.8;;
61627;SDS011;55193;52.102;5.242;2022-10-31T10:21:51;23.4;;;15.4;;
61627;SDS011;55193;52.102;5.242;2022-10-31T10:23:44;21.9;;;14.3;;
61627;SDS011;55193;52.102;5.242;2022-10-31T10:25:33;19.3;;;13.4;;
61627;SDS011;55193;52.102;5.242;2022-10-31T10:27:14;19.7;;;14.3;;
61627;SDS011;55193;52.102;5.242;2022-10-31T10:29:01;19.7;;;13.5;;
61627;SDS011;55193;52.102;5.242;2022-10-31T10:30:54;19.61;;;12.0;;
61627;SDS011;55193;52.102;5.242;2022-10-31T10:34:19;18.8;;;13.0;;
61627;SDS011;55193;52.102;5.242;2022-10-31T10:36:03;18.3;;;12.4;;
61627;SDS011;55193;52.102;5.242;2022-10-31T10:37:44;19.61;;;12.4;;
61627;SDS011;55193;52.102;5.242;2022-10-31T10:39:25;16.9;;;12.5;;
61627;SDS011;55193;52.102;5.242;2022-10-31T10:43:25;17.41;;;12.2;;
61627;SDS011;55193;52.102;5.242;2022-10-31T10:48:04;18.7;;;13.2;;
61627;SDS011;55193;52.102;5.242;2022-10-31T10:49:44;18.0;;;12.9;;
61627;SDS011;55193;52.102;5.242;2022-10-31T10:53:24;20.2;;;13.6;;
61627;SDS011;55193;52.102;5.242;2022-10-31T10:55:15;20.3;;;13.9;;
61627;SDS011;55193;52.102;5.242;2022-10-31T10:57:03;20.41;;;13.1;;
61627;SDS011;55193;52.102;5.242;2022-10-31T10:58:50;17.41;;;12.9;;
61627;SDS011;55193;52.102;5.242;2022-10-31T11:00:29;21.4;;;13.4;;
61627;SDS011;55193;52.102;5.242;2022-10-31T11:02:16;19.61;;;12.7;;
61627;SDS011;55193;52.102;5.242;2022-10-31T11:05:39;18.91;;;12.6;;
61627;SDS011;55193;52.102;5.242;2022-10-31T11:07:22;23.3;;;13.8;;
61627;SDS011;55193;52.102;5.242;2022-10-31T11:09:08;20.11;;;12.7;;
61627;SDS011;55193;52.102;5.242;2022-10-31T11:10:45;20.7;;;12.4;;
61627;SDS011;55193;52.102;5.242;2022-10-31T11:12:33;21.1;;;12.8;;
61627;SDS011;55193;52.102;5.242;2022-10-31T11:15:51;21.0;;;13.0;;
61627;SDS011;55193;52.102;5.242;2022-10-31T11:17:36;19.61;;;13.3;;
61627;SDS011;55193;52.102;5.242;2022-10-31T11:19:16;20.7;;;12.5;;
61627;SDS011;55193;52.102;5.242;2022-10-31T11:21:03;21.8;;;13.7;;
61627;SDS011;55193;52.102;5.242;2022-10-31T11:24:20;19.5;;;13.1;;
61627;SDS011;55193;52.102;5.242;2022-10-31T11:25:58;22.2;;;13.4;;
61627;SDS011;55193;52.102;5.242;2022-10-31T11:27:36;20.6;;;14.2;;
61627;SDS011;55193;52.102;5.242;2022-10-31T11:30:52;24.9;;;15.7;;
61627;SDS011;55193;52.102;5.242;2022-10-31T11:32:33;24.0;;;14.6;;
61627;SDS011;55193;52.102;5.242;2022-10-31T11:34:13;27.2;;;16.2;;
61627;SDS011;55193;52.102;5.242;2022-10-31T11:35:54;27.5;;;15.5;;
61627;SDS011;55193;52.102;5.242;2022-10-31T11:39:15;26.9;;;16.0;;
61627;SDS011;55193;52.102;5.242;2022-10-31T11:40:57;31.4;;;17.5;;
61627;SDS011;55193;52.102;5.242;2022-10-31T11:42:38;32.0;;;17.7;;
61627;SDS011;55193;52.102;5.242;2022-10-31T11:44:18;29.3;;;17.8;;
61627;SDS011;55193;52.102;5.242;2022-10-31T11:47:36;28.8;;;17.5;;
61627;SDS011;55193;52.102;5.242;2022-10-31T11:49:15;28.1;;;17.41;;
61627;SDS011;55193;52.102;5.242;2022-10-31T11:50:55;33.6;;;18.0;;
61627;SDS011;55193;52.102;5.242;2022-10-31T11:52:33;31.8;;;18.7;;
61627;SDS011;55193;52.102;5.242;2022-10-31T11:56:03;34.0;;;18.7;;
61627;SDS011;55193;52.102;5.242;2022-10-31T11:57:47;29.7;;;18.41;;
61627;SDS011;55193;52.102;5.242;2022-10-31T11:59:27;34.6;;;19.3;;
61627;SDS011;55193;52.102;5.242;2022-10-31T12:01:04;34.71;;;21.0;;
61627;SDS011;55193;52.102;5.242;2022-10-31T12:04:18;35.1;;;20.6;;
61627;SDS011;55193;52.102;5.242;2022-10-31T12:06:05;33.0;;;20.5;;
61627;SDS011;55193;52.102;5.242;2022-10-31T12:07:46;35.81;;;20.8;;
61627;SDS011;55193;52.102;5.242;2022-10-31T12:09:24;34.81;;;21.0;;
61627;SDS011;55193;52.102;5.242;2022-10-31T12:13:08;33.71;;;21.2;;
61627;SDS011;55193;52.102;5.242;2022-10-31T12:15:38;38.21;;;20.8;;
61627;SDS011;55193;52.102;5.242;2022-10-31T12:17:25;32.4;;;20.5;;
61627;SDS011;55193;52.102;5.242;2022-10-31T12:19:13;33.5;;;20.7;;
61627;SDS011;55193;52.102;5.242;2022-10-31T12:21:03;37.21;;;21.2;;
61627;SDS011;55193;52.102;5.242;2022-10-31T12:22:56;34.71;;;20.41;;
61627;SDS011;55193;52.102;5.242;2022-10-31T12:24:44;37.9;;;21.7;;
61627;SDS011;55193;52.102;5.242;2022-10-31T12:26:38;37.21;;;22.1;;
61627;SDS011;55193;52.102;5.242;2022-10-31T12:28:29;35.9;;;21.5;;
61627;SDS011;55193;52.102;5.242;2022-10-31T12:30:21;36.1;;;21.4;;
61627;SDS011;55193;52.102;5.242;2022-10-31T12:32:10;36.4;;;21.2;;
61627;SDS011;55193;52.102;5.242;2022-10-31T12:36:10;34.9;;;19.8;;
61627;SDS011;55193;52.102;5.242;2022-10-31T12:38:07;34.31;;;21.4;;
61627;SDS011;55193;52.102;5.242;2022-10-31T12:40:27;33.6;;;19.8;;